sensor_id;sensor_type;location;lat;lon;timestamp;pressure;altitude;pressure_sealevel;temperature;humidity
29121;BME280;16191;49.548;8.658;2022-07-17T00:02:09;101288.28;;;18.00;55.28
29121;BME280;16191;49.548;8.658;2022-07-17T00:04:36;101284.22;;;17.94;55.06
29121;BME280;16191;49.548;8.658;2022-07-17T00:07:03;101293.38;;;17.87;55.23
29121;BME280;16191;49.548;8.658;2022-07-17T00:09:29;101290.75;;;17.87;54.76
29121;BME280;16191;49.548;8.658;2022-07-17T00:11:56;101279.66;;;17.65;55.57
29121;BME280;16191;49.548;8.658;2022-07-17T00:14:23;101282.41;;;17.62;55.92
29121;BME280;16191;49.548;8.658;2022-07-17T00:16:50;101278.66;;;17.83;55.58
29121;BME280;16191;49.548;8.658;2022-07-17T00:19:18;101280.03;;;17.74;55.82
29121;BME280;16191;49.548;8.658;2022-07-17T00:22:04;101280.19;;;17.54;56.33
29121;BME280;16191;49.548;8.658;2022-07-17T00:24:51;101276.38;;;17.60;56.06
29121;BME280;16191;49.548;8.658;2022-07-17T00:27:37;101283.28;;;17.62;55.93
29121;BME280;16191;49.548;8.658;2022-07-17T00:30:24;101273.28;;;17.69;55.29
29121;BME280;16191;49.548;8.658;2022-07-17T00:33:10;101275.72;;;17.39;56.77
29121;BME280;16191;49.548;8.658;2022-07-17T00:35:57;101276.88;;;17.33;57.34
29121;BME280;16191;49.548;8.658;2022-07-17T00:38:23;101272.97;;;17.25;57.25
29121;BME280;16191;49.548;8.658;2022-07-17T00:40:54;101273.66;;;17.28;57.23
29121;BME280;16191;49.548;8.658;2022-07-17T00:43:22;101275.69;;;17.23;57.21
29121;BME280;16191;49.548;8.658;2022-07-17T00:46:02;101275.63;;;17.07;57.85
29121;BME280;16191;49.548;8.658;2022-07-17T00:48:30;101278.88;;;17.30;56.45
29121;BME280;16191;49.548;8.658;2022-07-17T00:50:58;101284.59;;;17.21;56.21
29121;BME280;16191;49.548;8.658;2022-07-17T00:53:26;101286.16;;;17.25;55.69
29121;BME280;16191;49.548;8.658;2022-07-17T00:55:55;101277.63;;;17.20;55.36
29121;BME280;16191;49.548;8.658;2022-07-17T00:58:24;101273.50;;;17.31;55.18
29121;BME280;16191;49.548;8.658;2022-07-17T01:00:52;101274.34;;;17.32;55.36
29121;BME280;16191;49.548;8.658;2022-07-17T01:03:22;101267.94;;;17.20;55.66
29121;BME280;16191;49.548;8.658;2022-07-17T01:05:49;101269.91;;;17.32;55.49
29121;BME280;16191;49.548;8.658;2022-07-17T01:08:16;101268.56;;;17.08;56.30
29121;BME280;16191;49.548;8.658;2022-07-17T01:10:43;101268.09;;;17.00;56.65
29121;BME280;16191;49.548;8.658;2022-07-17T01:13:10;101265.53;;;17.16;55.80
29121;BME280;16191;49.548;8.658;2022-07-17T01:15:38;101257.59;;;17.16;55.48
29121;BME280;16191;49.548;8.658;2022-07-17T01:18:13;101265.09;;;17.07;56.27
29121;BME280;16191;49.548;8.658;2022-07-17T01:20:42;101261.72;;;17.21;55.37
29121;BME280;16191;49.548;8.658;2022-07-17T01:23:09;101271.56;;;17.18;55.22
29121;BME280;16191;49.548;8.658;2022-07-17T01:25:35;101271.81;;;17.13;55.25
29121;BME280;16191;49.548;8.658;2022-07-17T01:28:03;101271.22;;;17.08;56.11
29121;BME280;16191;49.548;8.658;2022-07-17T01:30:30;101281.25;;;17.17;55.23
29121;BME280;16191;49.548;8.658;2022-07-17T01:32:57;101280.13;;;17.05;55.64
29121;BME280;16191;49.548;8.658;2022-07-17T01:35:24;101272.66;;;17.13;55.00
29121;BME280;16191;49.548;8.658;2022-07-17T01:37:51;101283.69;;;17.04;55.09
29121;BME280;16191;49.548;8.658;2022-07-17T01:40:17;101274.06;;;17.03;55.60
29121;BME280;16191;49.548;8.658;2022-07-17T01:42:47;101278.94;;;17.11;54.97
29121;BME280;16191;49.548;8.658;2022-07-17T01:45:14;101288.81;;;17.07;55.11
29121;BME280;16191;49.548;8.658;2022-07-17T01:47:42;101278.66;;;17.00;55.33
29121;BME280;16191;49.548;8.658;2022-07-17T01:50:10;101292.06;;;16.78;56.77
29121;BME280;16191;49.548;8.658;2022-07-17T01:52:39;101286.56;;;16.65;56.97
29121;BME280;16191;49.548;8.658;2022-07-17T01:55:08;101283.06;;;16.82;56.03
29121;BME280;16191;49.548;8.658;2022-07-17T01:57:35;101286.09;;;16.92;55.75
29121;BME280;16191;49.548;8.658;2022-07-17T02:00:08;101282.06;;;16.85;55.83
29121;BME280;16191;49.548;8.658;2022-07-17T02:02:37;101278.81;;;16.79;56.03
29121;BME280;16191;49.548;8.658;2022-07-17T02:05:05;101276.94;;;16.82;55.79
29121;BME280;16191;49.548;8.658;2022-07-17T02:07:32;101272.75;;;16.77;55.79
29121;BME280;16191;49.548;8.658;2022-07-17T02:09:59;101275.47;;;16.76;55.91
29121;BME280;16191;49.548;8.658;2022-07-17T02:12:26;101267.06;;;16.68;56.03
29121;BME280;16191;49.548;8.658;2022-07-17T02:14:53;101267.66;;;16.56;56.26
29121;BME280;16191;49.548;8.658;2022-07-17T02:17:19;101269.41;;;16.74;55.26
29121;BME280;16191;49.548;8.658;2022-07-17T02:19:45;101264.94;;;16.76;55.35
29121;BME280;16191;49.548;8.658;2022-07-17T02:22:12;101267.00;;;16.69;54.95
29121;BME280;16191;49.548;8.658;2022-07-17T02:24:38;101270.13;;;16.77;54.35
29121;BME280;16191;49.548;8.658;2022-07-17T02:27:05;101261.91;;;16.84;53.41
29121;BME280;16191;49.548;8.658;2022-07-17T02:29:32;101255.63;;;16.86;53.44
29121;BME280;16191;49.548;8.658;2022-07-17T02:31:59;101256.31;;;16.90;53.04
29121;BME280;16191;49.548;8.658;2022-07-17T02:34:26;101260.19;;;17.00;52.22
29121;BME280;16191;49.548;8.658;2022-07-17T02:36:52;101266.94;;;17.05;51.77
29121;BME280;16191;49.548;8.658;2022-07-17T02:39:19;101266.31;;;17.00;51.81
29121;BME280;16191;49.548;8.658;2022-07-17T02:41:45;101266.88;;;17.07;51.65
29121;BME280;16191;49.548;8.658;2022-07-17T02:44:12;101276.25;;;16.95;51.59
29121;BME280;16191;49.548;8.658;2022-07-17T02:46:38;101269.81;;;17.01;51.87
29121;BME280;16191;49.548;8.658;2022-07-17T02:49:05;101268.19;;;16.98;51.79
29121;BME280;16191;49.548;8.658;2022-07-17T02:51:32;101268.97;;;17.00;51.33
29121;BME280;16191;49.548;8.658;2022-07-17T02:53:59;101273.28;;;17.01;51.37
29121;BME280;16191;49.548;8.658;2022-07-17T02:56:25;101282.53;;;16.75;52.58
29121;BME280;16191;49.548;8.658;2022-07-17T02:58:52;101277.50;;;16.88;51.70
29121;BME280;16191;49.548;8.658;2022-07-17T03:01:19;101275.53;;;16.92;52.20
29121;BME280;16191;49.548;8.658;2022-07-17T03:03:45;101276.09;;;16.81;52.12
29121;BME280;16191;49.548;8.658;2022-07-17T03:06:12;101274.53;;;16.77;52.58
29121;BME280;16191;49.548;8.658;2022-07-17T03:08:39;101269.13;;;16.80;52.20
29121;BME280;16191;49.548;8.658;2022-07-17T03:11:05;101264.28;;;16.71;52.31
29121;BME280;16191;49.548;8.658;2022-07-17T03:13:32;101264.84;;;16.77;52.05
29121;BME280;16191;49.548;8.658;2022-07-17T03:15:59;101261.34;;;16.77;51.77
29121;BME280;16191;49.548;8.658;2022-07-17T03:18:25;101255.09;;;16.79;51.88
29121;BME280;16191;49.548;8.658;2022-07-17T03:20:52;101252.13;;;16.68;52.33
29121;BME280;16191;49.548;8.658;2022-07-17T03:23:18;101252.91;;;16.70;52.28
29121;BME280;16191;49.548;8.658;2022-07-17T03:25:45;101258.44;;;16.66;52.31
29121;BME280;16191;49.548;8.658;2022-07-17T03:28:12;101247.41;;;16.75;52.41
29121;BME280;16191;49.548;8.658;2022-07-17T03:30:38;101244.63;;;16.78;51.51
29121;BME280;16191;49.548;8.658;2022-07-17T03:33:05;101250.88;;;16.75;51.55
29121;BME280;16191;49.548;8.658;2022-07-17T03:35:31;101251.66;;;16.77;51.33
29121;BME280;16191;49.548;8.658;2022-07-17T03:37:58;101256.63;;;16.84;51.14
29121;BME280;16191;49.548;8.658;2022-07-17T03:40:25;101262.38;;;16.74;51.01
29121;BME280;16191;49.548;8.658;2022-07-17T03:42:51;101259.03;;;16.71;51.44
29121;BME280;16191;49.548;8.658;2022-07-17T03:45:19;101260.59;;;16.75;50.99
29121;BME280;16191;49.548;8.658;2022-07-17T03:47:46;101262.50;;;16.71;51.37
29121;BME280;16191;49.548;8.658;2022-07-17T03:50:12;101269.41;;;16.74;51.49
29121;BME280;16191;49.548;8.658;2022-07-17T03:52:39;101259.66;;;16.76;51.81
29121;BME280;16191;49.548;8.658;2022-07-17T03:55:06;101265.47;;;16.83;51.63
29121;BME280;16191;49.548;8.658;2022-07-17T03:57:32;101263.06;;;16.78;50.78
29121;BME280;16191;49.548;8.658;2022-07-17T04:00:00;101268.78;;;16.69;51.48
29121;BME280;16191;49.548;8.658;2022-07-17T04:02:37;101270.03;;;16.79;51.05
29121;BME280;16191;49.548;8.658;2022-07-17T04:05:04;101271.91;;;16.77;51.37
29121;BME280;16191;49.548;8.658;2022-07-17T04:07:39;101272.72;;;16.60;51.63
29121;BME280;16191;49.548;8.658;2022-07-17T04:10:07;101279.25;;;16.70;51.90
29121;BME280;16191;49.548;8.658;2022-07-17T04:12:35;101284.03;;;16.62;51.97
29121;BME280;16191;49.548;8.658;2022-07-17T04:15:03;101283.78;;;16.50;53.34
29121;BME280;16191;49.548;8.658;2022-07-17T04:17:30;101290.78;;;16.68;52.91
29121;BME280;16191;49.548;8.658;2022-07-17T04:19:57;101290.66;;;16.71;52.67
29121;BME280;16191;49.548;8.658;2022-07-17T04:22:24;101292.47;;;16.52;53.24
29121;BME280;16191;49.548;8.658;2022-07-17T04:24:51;101288.19;;;16.49;53.62
29121;BME280;16191;49.548;8.658;2022-07-17T04:27:18;101292.88;;;16.61;53.89
29121;BME280;16191;49.548;8.658;2022-07-17T04:29:45;101293.81;;;16.60;53.48
29121;BME280;16191;49.548;8.658;2022-07-17T04:32:12;101293.22;;;16.72;53.17
29121;BME280;16191;49.548;8.658;2022-07-17T04:34:39;101296.16;;;16.66;53.29
29121;BME280;16191;49.548;8.658;2022-07-17T04:37:05;101297.03;;;16.67;52.91
29121;BME280;16191;49.548;8.658;2022-07-17T04:39:32;101294.66;;;16.61;53.09
29121;BME280;16191;49.548;8.658;2022-07-17T04:41:58;101291.66;;;16.68;52.61
29121;BME280;16191;49.548;8.658;2022-07-17T04:44:25;101293.78;;;16.79;52.75
29121;BME280;16191;49.548;8.658;2022-07-17T04:46:51;101298.66;;;16.87;52.54
29121;BME280;16191;49.548;8.658;2022-07-17T04:49:18;101303.16;;;16.85;52.21
29121;BME280;16191;49.548;8.658;2022-07-17T04:51:45;101306.81;;;16.82;51.99
29121;BME280;16191;49.548;8.658;2022-07-17T04:54:11;101307.34;;;16.89;51.74
29121;BME280;16191;49.548;8.658;2022-07-17T04:56:38;101306.66;;;16.85;52.22
29121;BME280;16191;49.548;8.658;2022-07-17T04:59:04;101306.03;;;16.97;51.46
29121;BME280;16191;49.548;8.658;2022-07-17T05:01:31;101307.19;;;16.92;52.26
29121;BME280;16191;49.548;8.658;2022-07-17T05:03:58;101311.50;;;16.93;53.13
29121;BME280;16191;49.548;8.658;2022-07-17T05:06:25;101302.44;;;16.98;53.38
29121;BME280;16191;49.548;8.658;2022-07-17T05:08:51;101314.84;;;16.96;53.44
29121;BME280;16191;49.548;8.658;2022-07-17T05:11:18;101321.06;;;16.95;53.83
29121;BME280;16191;49.548;8.658;2022-07-17T05:13:44;101321.63;;;16.85;53.80
29121;BME280;16191;49.548;8.658;2022-07-17T05:16:11;101324.09;;;16.88;54.15
29121;BME280;16191;49.548;8.658;2022-07-17T05:18:37;101324.41;;;16.99;54.42
29121;BME280;16191;49.548;8.658;2022-07-17T05:21:04;101323.63;;;16.97;55.36
29121;BME280;16191;49.548;8.658;2022-07-17T05:23:30;101327.75;;;17.02;55.84
29121;BME280;16191;49.548;8.658;2022-07-17T05:25:57;101325.81;;;17.06;56.33
29121;BME280;16191;49.548;8.658;2022-07-17T05:28:24;101336.00;;;16.77;58.18
29121;BME280;16191;49.548;8.658;2022-07-17T05:30:50;101335.03;;;16.97;58.37
29121;BME280;16191;49.548;8.658;2022-07-17T05:33:17;101335.00;;;16.80;58.31
29121;BME280;16191;49.548;8.658;2022-07-17T05:35:43;101330.81;;;16.76;58.26
29121;BME280;16191;49.548;8.658;2022-07-17T05:38:10;101328.88;;;16.79;58.57
29121;BME280;16191;49.548;8.658;2022-07-17T05:40:37;101333.09;;;16.84;59.34
29121;BME280;16191;49.548;8.658;2022-07-17T05:43:03;101335.16;;;16.77;60.15
29121;BME280;16191;49.548;8.658;2022-07-17T05:45:30;101344.22;;;16.71;61.11
29121;BME280;16191;49.548;8.658;2022-07-17T05:47:56;101336.94;;;16.76;61.48
29121;BME280;16191;49.548;8.658;2022-07-17T05:50:23;101342.50;;;16.70;61.74
29121;BME280;16191;49.548;8.658;2022-07-17T05:52:49;101339.66;;;16.56;63.16
29121;BME280;16191;49.548;8.658;2022-07-17T05:55:16;101337.31;;;16.69;64.21
29121;BME280;16191;49.548;8.658;2022-07-17T05:57:43;101343.94;;;16.95;63.13
29121;BME280;16191;49.548;8.658;2022-07-17T06:00:10;101344.94;;;16.92;63.33
29121;BME280;16191;49.548;8.658;2022-07-17T06:02:44;101346.03;;;16.88;63.61
29121;BME280;16191;49.548;8.658;2022-07-17T06:05:11;101351.47;;;17.02;63.50
29121;BME280;16191;49.548;8.658;2022-07-17T06:07:45;101346.66;;;17.10;63.30
29121;BME280;16191;49.548;8.658;2022-07-17T06:10:12;101350.84;;;17.14;63.86
29121;BME280;16191;49.548;8.658;2022-07-17T06:12:38;101349.47;;;17.07;63.99
29121;BME280;16191;49.548;8.658;2022-07-17T06:15:05;101359.69;;;17.13;64.04
29121;BME280;16191;49.548;8.658;2022-07-17T06:17:32;101354.66;;;17.26;63.46
29121;BME280;16191;49.548;8.658;2022-07-17T06:20:03;101360.31;;;17.36;63.58
29121;BME280;16191;49.548;8.658;2022-07-17T06:22:30;101358.84;;;17.47;62.84
29121;BME280;16191;49.548;8.658;2022-07-17T06:24:56;101360.63;;;17.47;62.60
29121;BME280;16191;49.548;8.658;2022-07-17T06:27:23;101354.69;;;17.59;62.61
29121;BME280;16191;49.548;8.658;2022-07-17T06:29:50;101358.09;;;17.78;62.81
29121;BME280;16191;49.548;8.658;2022-07-17T06:32:22;101370.19;;;17.83;60.83
29121;BME280;16191;49.548;8.658;2022-07-17T06:34:48;101365.16;;;17.78;60.44
29121;BME280;16191;49.548;8.658;2022-07-17T06:37:18;101356.28;;;17.96;60.11
29121;BME280;16191;49.548;8.658;2022-07-17T06:39:50;101360.47;;;18.16;60.54
29121;BME280;16191;49.548;8.658;2022-07-17T06:42:17;101361.66;;;18.10;59.07
29121;BME280;16191;49.548;8.658;2022-07-17T06:44:43;101363.53;;;18.24;58.85
29121;BME280;16191;49.548;8.658;2022-07-17T06:47:10;101362.44;;;18.44;57.96
29121;BME280;16191;49.548;8.658;2022-07-17T06:49:37;101358.75;;;18.46;57.53
29121;BME280;16191;49.548;8.658;2022-07-17T06:52:03;101363.91;;;18.81;57.19
29121;BME280;16191;49.548;8.658;2022-07-17T06:54:30;101359.47;;;18.81;56.25
29121;BME280;16191;49.548;8.658;2022-07-17T06:56:56;101367.53;;;18.94;55.54
29121;BME280;16191;49.548;8.658;2022-07-17T06:59:23;101359.28;;;19.14;55.54
29121;BME280;16191;49.548;8.658;2022-07-17T07:01:49;101359.88;;;19.34;55.56
29121;BME280;16191;49.548;8.658;2022-07-17T07:04:16;101359.94;;;19.48;54.33
29121;BME280;16191;49.548;8.658;2022-07-17T07:06:43;101354.84;;;19.59;52.81
29121;BME280;16191;49.548;8.658;2022-07-17T07:09:09;101355.44;;;19.64;52.52
29121;BME280;16191;49.548;8.658;2022-07-17T07:11:42;101349.56;;;19.88;51.74
29121;BME280;16191;49.548;8.658;2022-07-17T07:14:09;101354.66;;;19.76;51.05
29121;BME280;16191;49.548;8.658;2022-07-17T07:16:35;101347.41;;;19.80;51.46
29121;BME280;16191;49.548;8.658;2022-07-17T07:19:05;101342.34;;;20.18;50.83
29121;BME280;16191;49.548;8.658;2022-07-17T07:21:32;101350.75;;;20.25;51.00
29121;BME280;16191;49.548;8.658;2022-07-17T07:23:58;101348.56;;;20.45;49.43
29121;BME280;16191;49.548;8.658;2022-07-17T07:26:25;101343.63;;;20.53;48.14
29121;BME280;16191;49.548;8.658;2022-07-17T07:28:51;101338.81;;;20.46;49.08
29121;BME280;16191;49.548;8.658;2022-07-17T07:31:18;101334.06;;;20.78;48.66
29121;BME280;16191;49.548;8.658;2022-07-17T07:33:45;101334.38;;;20.86;48.81
29121;BME280;16191;49.548;8.658;2022-07-17T07:36:12;101332.19;;;21.05;48.10
29121;BME280;16191;49.548;8.658;2022-07-17T07:38:44;101327.59;;;21.22;46.97
29121;BME280;16191;49.548;8.658;2022-07-17T07:41:12;101331.50;;;21.16;46.83
29121;BME280;16191;49.548;8.658;2022-07-17T07:43:39;101327.59;;;21.34;46.61
29121;BME280;16191;49.548;8.658;2022-07-17T07:46:06;101321.34;;;21.35;45.32
29121;BME280;16191;49.548;8.658;2022-07-17T07:48:35;101329.09;;;21.64;45.10
29121;BME280;16191;49.548;8.658;2022-07-17T07:51:02;101316.41;;;21.93;44.34
29121;BME280;16191;49.548;8.658;2022-07-17T07:53:32;101321.84;;;22.04;44.00
29121;BME280;16191;49.548;8.658;2022-07-17T07:56:03;101324.06;;;22.34;43.95
29121;BME280;16191;49.548;8.658;2022-07-17T07:58:29;101318.97;;;22.31;43.13
29121;BME280;16191;49.548;8.658;2022-07-17T08:00:56;101323.03;;;22.60;42.85
29121;BME280;16191;49.548;8.658;2022-07-17T08:03:25;101323.19;;;22.46;41.28
29121;BME280;16191;49.548;8.658;2022-07-17T08:05:51;101316.81;;;22.72;41.06
29121;BME280;16191;49.548;8.658;2022-07-17T08:08:18;101325.31;;;23.12;41.38
29121;BME280;16191;49.548;8.658;2022-07-17T08:10:44;101322.88;;;23.09;40.36
29121;BME280;16191;49.548;8.658;2022-07-17T08:13:12;101319.53;;;23.41;41.40
29121;BME280;16191;49.548;8.658;2022-07-17T08:15:38;101319.81;;;23.38;39.53
29121;BME280;16191;49.548;8.658;2022-07-17T08:18:05;101318.41;;;23.56;39.21
29121;BME280;16191;49.548;8.658;2022-07-17T08:20:32;101313.19;;;23.88;37.97
29121;BME280;16191;49.548;8.658;2022-07-17T08:22:59;101313.88;;;24.12;37.12
29121;BME280;16191;49.548;8.658;2022-07-17T08:25:33;101321.50;;;24.39;36.11
29121;BME280;16191;49.548;8.658;2022-07-17T08:28:02;101326.59;;;24.42;35.74
29121;BME280;16191;49.548;8.658;2022-07-17T08:30:29;101314.63;;;24.57;35.85
29121;BME280;16191;49.548;8.658;2022-07-17T08:32:58;101321.47;;;24.82;35.27
29121;BME280;16191;49.548;8.658;2022-07-17T08:35:24;101308.25;;;24.81;34.37
29121;BME280;16191;49.548;8.658;2022-07-17T08:37:52;101301.84;;;24.93;34.23
29121;BME280;16191;49.548;8.658;2022-07-17T08:40:27;101305.41;;;25.14;34.38
29121;BME280;16191;49.548;8.658;2022-07-17T08:42:56;101300.84;;;25.26;34.72
29121;BME280;16191;49.548;8.658;2022-07-17T08:45:23;101304.13;;;25.30;33.55
29121;BME280;16191;49.548;8.658;2022-07-17T08:47:51;101305.22;;;25.27;33.29
29121;BME280;16191;49.548;8.658;2022-07-17T08:50:24;101308.53;;;25.19;33.17
29121;BME280;16191;49.548;8.658;2022-07-17T08:52:52;101317.56;;;25.70;33.69
29121;BME280;16191;49.548;8.658;2022-07-17T08:55:19;101315.28;;;25.65;32.62
29121;BME280;16191;49.548;8.658;2022-07-17T08:57:46;101311.72;;;25.85;33.29
29121;BME280;16191;49.548;8.658;2022-07-17T09:00:15;101312.88;;;26.02;32.53
29121;BME280;16191;49.548;8.658;2022-07-17T09:03:06;101313.59;;;26.04;32.05
29121;BME280;16191;49.548;8.658;2022-07-17T09:05:38;101309.47;;;26.31;32.21
29121;BME280;16191;49.548;8.658;2022-07-17T09:08:07;101307.38;;;26.44;32.32
29121;BME280;16191;49.548;8.658;2022-07-17T09:10:35;101308.22;;;26.73;31.73
29121;BME280;16191;49.548;8.658;2022-07-17T09:15:57;101300.63;;;26.98;30.18
29121;BME280;16191;49.548;8.658;2022-07-17T09:18:25;101293.41;;;26.88;30.08
29121;BME280;16191;49.548;8.658;2022-07-17T09:20:57;101296.69;;;26.53;30.22
29121;BME280;16191;49.548;8.658;2022-07-17T09:23:26;101298.25;;;27.04;30.85
29121;BME280;16191;49.548;8.658;2022-07-17T09:25:55;101287.06;;;27.18;30.13
29121;BME280;16191;49.548;8.658;2022-07-17T09:28:22;101287.25;;;26.78;29.54
29121;BME280;16191;49.548;8.658;2022-07-17T09:30:52;101284.09;;;27.21;30.60
29121;BME280;16191;49.548;8.658;2022-07-17T09:33:22;101284.44;;;26.99;29.73
29121;BME280;16191;49.548;8.658;2022-07-17T09:35:51;101279.66;;;27.49;30.15
29121;BME280;16191;49.548;8.658;2022-07-17T09:38:33;101273.38;;;27.68;29.42
29121;BME280;16191;49.548;8.658;2022-07-17T09:43:55;101273.75;;;28.01;28.06
29121;BME280;16191;49.548;8.658;2022-07-17T09:46:26;101276.00;;;28.05;27.95
29121;BME280;16191;49.548;8.658;2022-07-17T09:48:57;101272.22;;;28.25;28.31
29121;BME280;16191;49.548;8.658;2022-07-17T09:51:29;101280.88;;;28.37;27.75
29121;BME280;16191;49.548;8.658;2022-07-17T09:53:58;101281.91;;;28.54;28.46
29121;BME280;16191;49.548;8.658;2022-07-17T09:56:28;101279.50;;;28.69;27.63
29121;BME280;16191;49.548;8.658;2022-07-17T09:59:08;101274.59;;;28.46;27.19
29121;BME280;16191;49.548;8.658;2022-07-17T10:01:36;101277.03;;;28.22;26.96
29121;BME280;16191;49.548;8.658;2022-07-17T10:04:03;101279.38;;;28.52;27.43
29121;BME280;16191;49.548;8.658;2022-07-17T10:06:30;101274.53;;;29.17;27.27
29121;BME280;16191;49.548;8.658;2022-07-17T10:08:58;101276.44;;;28.99;27.07
29121;BME280;16191;49.548;8.658;2022-07-17T10:11:30;101268.56;;;29.06;26.08
29121;BME280;16191;49.548;8.658;2022-07-17T10:14:04;101272.91;;;28.81;25.74
29121;BME280;16191;49.548;8.658;2022-07-17T10:16:34;101265.66;;;29.43;26.48
29121;BME280;16191;49.548;8.658;2022-07-17T10:19:03;101270.53;;;29.21;26.02
29121;BME280;16191;49.548;8.658;2022-07-17T10:22:00;101268.31;;;28.73;26.51
29121;BME280;16191;49.548;8.658;2022-07-17T10:24:28;101267.88;;;29.29;25.45
29121;BME280;16191;49.548;8.658;2022-07-17T10:26:56;101269.78;;;29.37;25.53
29121;BME280;16191;49.548;8.658;2022-07-17T10:31:54;101272.56;;;29.27;25.57
29121;BME280;16191;49.548;8.658;2022-07-17T10:34:45;101266.47;;;29.77;25.84
29121;BME280;16191;49.548;8.658;2022-07-17T10:37:24;101275.16;;;29.63;25.46
29121;BME280;16191;49.548;8.658;2022-07-17T10:39:56;101260.88;;;30.05;25.61
29121;BME280;16191;49.548;8.658;2022-07-17T10:43:03;101258.00;;;30.06;25.23
29121;BME280;16191;49.548;8.658;2022-07-17T10:45:41;101255.69;;;29.77;25.44
29121;BME280;16191;49.548;8.658;2022-07-17T10:48:14;101261.19;;;30.02;25.88
29121;BME280;16191;49.548;8.658;2022-07-17T10:50:42;101250.81;;;30.39;24.87
29121;BME280;16191;49.548;8.658;2022-07-17T10:53:20;101256.38;;;30.54;25.03
29121;BME280;16191;49.548;8.658;2022-07-17T10:55:59;101252.78;;;30.05;25.21
29121;BME280;16191;49.548;8.658;2022-07-17T10:58:32;101251.03;;;30.62;24.71
29121;BME280;16191;49.548;8.658;2022-07-17T11:01:13;101248.00;;;30.73;24.74
29121;BME280;16191;49.548;8.658;2022-07-17T11:03:44;101242.44;;;30.83;24.83
29121;BME280;16191;49.548;8.658;2022-07-17T11:06:19;101241.56;;;30.98;24.75
29121;BME280;16191;49.548;8.658;2022-07-17T11:08:53;101251.91;;;31.50;24.21
29121;BME280;16191;49.548;8.658;2022-07-17T11:11:22;101248.63;;;31.63;22.85
29121;BME280;16191;49.548;8.658;2022-07-17T11:14:19;101251.75;;;31.44;23.98
29121;BME280;16191;49.548;8.658;2022-07-17T11:19:33;101252.09;;;31.88;23.13
29121;BME280;16191;49.548;8.658;2022-07-17T11:22:02;101253.78;;;31.42;23.27
29121;BME280;16191;49.548;8.658;2022-07-17T11:24:36;101254.97;;;31.86;22.63
29121;BME280;16191;49.548;8.658;2022-07-17T11:27:03;101258.94;;;30.96;22.87
29121;BME280;16191;49.548;8.658;2022-07-17T11:29:36;101251.34;;;31.71;22.13
29121;BME280;16191;49.548;8.658;2022-07-17T11:32:03;101253.88;;;32.03;22.23
29121;BME280;16191;49.548;8.658;2022-07-17T11:34:30;101249.78;;;32.39;22.19
29121;BME280;16191;49.548;8.658;2022-07-17T11:37:03;101250.13;;;32.04;22.76
29121;BME280;16191;49.548;8.658;2022-07-17T11:39:43;101245.28;;;31.61;22.53
29121;BME280;16191;49.548;8.658;2022-07-17T11:42:19;101246.41;;;32.06;21.74
29121;BME280;16191;49.548;8.658;2022-07-17T11:44:50;101240.47;;;32.41;21.92
29121;BME280;16191;49.548;8.658;2022-07-17T11:47:22;101246.03;;;32.62;21.63
29121;BME280;16191;49.548;8.658;2022-07-17T11:49:50;101244.59;;;33.27;21.31
29121;BME280;16191;49.548;8.658;2022-07-17T11:52:19;101245.44;;;33.13;20.91
29121;BME280;16191;49.548;8.658;2022-07-17T11:54:50;101242.41;;;32.70;21.07
29121;BME280;16191;49.548;8.658;2022-07-17T11:57:18;101239.59;;;32.26;21.96
29121;BME280;16191;49.548;8.658;2022-07-17T11:59:46;101242.13;;;32.88;20.67
29121;BME280;16191;49.548;8.658;2022-07-17T12:02:21;101242.13;;;32.88;21.70
29121;BME280;16191;49.548;8.658;2022-07-17T12:04:51;101246.63;;;33.10;21.52
29121;BME280;16191;49.548;8.658;2022-07-17T12:07:19;101244.34;;;32.61;19.96
29121;BME280;16191;49.548;8.658;2022-07-17T12:09:45;101242.22;;;32.94;20.62
29121;BME280;16191;49.548;8.658;2022-07-17T12:12:21;101230.66;;;32.86;20.70
29121;BME280;16191;49.548;8.658;2022-07-17T12:14:56;101241.72;;;32.76;20.93
29121;BME280;16191;49.548;8.658;2022-07-17T12:17:24;101238.59;;;33.61;20.09
29121;BME280;16191;49.548;8.658;2022-07-17T12:19:51;101237.03;;;34.02;20.83
29121;BME280;16191;49.548;8.658;2022-07-17T12:22:19;101239.50;;;32.80;19.99
29121;BME280;16191;49.548;8.658;2022-07-17T12:24:46;101232.78;;;32.30;21.13
29121;BME280;16191;49.548;8.658;2022-07-17T12:27:15;101229.97;;;32.46;20.72
29121;BME280;16191;49.548;8.658;2022-07-17T12:29:44;101223.72;;;32.46;21.34
29121;BME280;16191;49.548;8.658;2022-07-17T12:32:11;101226.22;;;33.37;20.73
29121;BME280;16191;49.548;8.658;2022-07-17T12:34:42;101225.09;;;33.46;20.19
29121;BME280;16191;49.548;8.658;2022-07-17T12:37:13;101223.50;;;34.38;20.18
29121;BME280;16191;49.548;8.658;2022-07-17T12:39:40;101232.56;;;34.31;20.34
29121;BME280;16191;49.548;8.658;2022-07-17T12:42:07;101234.16;;;33.53;20.39
29121;BME280;16191;49.548;8.658;2022-07-17T12:44:34;101226.25;;;33.88;20.26
29121;BME280;16191;49.548;8.658;2022-07-17T12:47:02;101221.78;;;34.16;20.04
29121;BME280;16191;49.548;8.658;2022-07-17T12:49:29;101224.44;;;34.31;19.86
29121;BME280;16191;49.548;8.658;2022-07-17T12:51:56;101210.41;;;33.70;19.91
29121;BME280;16191;49.548;8.658;2022-07-17T12:54:23;101215.34;;;34.88;19.29
29121;BME280;16191;49.548;8.658;2022-07-17T12:56:50;101202.50;;;34.47;19.63
29121;BME280;16191;49.548;8.658;2022-07-17T12:59:17;101210.69;;;33.60;19.93
29121;BME280;16191;49.548;8.658;2022-07-17T13:01:44;101215.13;;;34.61;19.41
29121;BME280;16191;49.548;8.658;2022-07-17T13:04:12;101211.66;;;34.46;19.17
29121;BME280;16191;49.548;8.658;2022-07-17T13:06:39;101207.09;;;34.75;19.04
29121;BME280;16191;49.548;8.658;2022-07-17T13:09:06;101201.66;;;34.47;19.64
29121;BME280;16191;49.548;8.658;2022-07-17T13:11:33;101200.94;;;34.17;19.30